createdAt,value
2023-03-04T00:00:43.369Z,101949.81
2023-03-04T00:03:11.206Z,101953.22
2023-03-04T00:05:38.302Z,101971.34
2023-03-04T00:08:04.932Z,101919.16
2023-03-04T00:10:31.460Z,101933.16
2023-03-04T00:12:57.897Z,101961.22
2023-03-04T00:15:24.393Z,101967.00
2023-03-04T00:17:50.932Z,101962.69
2023-03-04T00:20:17.656Z,101932.53
2023-03-04T00:22:44.171Z,101971.06
2023-03-04T00:25:10.810Z,101971.72
2023-03-04T00:27:37.327Z,101969.41
2023-03-04T00:30:05.459Z,101969.03
2023-03-04T00:32:32.299Z,101879.47
2023-03-04T00:34:58.839Z,101921.75
2023-03-04T00:37:25.391Z,101957.09
2023-03-04T00:39:51.999Z,101901.38
2023-03-04T00:42:18.558Z,101946.31
2023-03-04T00:44:45.125Z,101957.56
2023-03-04T00:47:11.579Z,101904.63
2023-03-04T00:49:38.110Z,101945.25
2023-03-04T00:52:04.558Z,101934.16
2023-03-04T00:54:31.070Z,101936.00
2023-03-04T00:56:57.534Z,101892.16
2023-03-04T00:59:24.062Z,101841.13
2023-03-04T01:01:50.661Z,101887.72
2023-03-04T01:04:17.162Z,101913.09
2023-03-04T01:06:43.637Z,101929.41
2023-03-04T01:09:10.122Z,101918.31
2023-03-04T01:11:36.702Z,101917.50
2023-03-04T01:14:03.571Z,101814.81
2023-03-04T01:16:30.236Z,101893.63
2023-03-04T01:18:56.818Z,101925.97
2023-03-04T01:21:23.851Z,101916.88
2023-03-04T01:23:50.378Z,101904.59
2023-03-04T01:26:16.974Z,101894.78
2023-03-04T01:28:43.553Z,101886.41
2023-03-04T01:31:10.144Z,101903.78
2023-03-04T01:33:36.754Z,101893.81
2023-03-04T01:36:03.290Z,101894.69
2023-03-04T01:38:29.794Z,101820.91
2023-03-04T01:40:56.426Z,101883.50
2023-03-04T01:43:27.118Z,101878.91
2023-03-04T01:45:55.002Z,101875.47
2023-03-04T01:48:26.431Z,101865.44
2023-03-04T01:50:53.499Z,101874.72
2023-03-04T01:53:25.348Z,101867.50
2023-03-04T01:55:57.597Z,101860.31
2023-03-04T02:01:00.258Z,101864.69
2023-03-04T02:03:27.437Z,101818.75
2023-03-04T02:05:55.239Z,101844.56
2023-03-04T02:08:23.551Z,101851.44
2023-03-04T02:10:51.210Z,101855.75
2023-03-04T02:13:18.065Z,101849.00
2023-03-04T02:15:45.938Z,101795.28
2023-03-04T02:18:23.389Z,101844.66
2023-03-04T02:20:52.951Z,101842.06
2023-03-04T02:23:30.557Z,101830.94
2023-03-04T02:26:17.797Z,101839.06
2023-03-04T02:28:45.690Z,101836.38
2023-03-04T02:31:35.878Z,101827.50
2023-03-04T02:34:06.558Z,101833.78
2023-03-04T02:36:34.582Z,101824.25
2023-03-04T02:39:05.651Z,101819.91
2023-03-04T02:41:33.022Z,101820.94
2023-03-04T02:43:59.679Z,101822.91
2023-03-04T02:46:26.197Z,101818.59
2023-03-04T02:48:53.125Z,101803.06
2023-03-04T02:51:20.255Z,101798.09
2023-03-04T02:53:46.858Z,101808.72
2023-03-04T02:56:13.370Z,101763.00
2023-03-04T02:58:40.691Z,101805.38
2023-03-04T03:01:07.228Z,101808.91
2023-03-04T03:03:33.804Z,101804.63
2023-03-04T03:06:00.307Z,101752.44
2023-03-04T03:08:26.874Z,101782.97
2023-03-04T03:10:53.324Z,101718.34
2023-03-04T03:13:19.810Z,101801.03
2023-03-04T03:15:47.072Z,101795.81
2023-03-04T03:18:14.428Z,101789.47
2023-03-04T03:20:40.935Z,101800.38
2023-03-04T03:23:07.713Z,101777.94
2023-03-04T03:25:34.304Z,101792.59
2023-03-04T03:28:00.777Z,101790.00
2023-03-04T03:30:28.312Z,101778.25
2023-03-04T03:32:55.112Z,101780.44
2023-03-04T03:35:21.713Z,101750.88
2023-03-04T03:37:49.200Z,101704.25
2023-03-04T03:40:15.904Z,101784.63
2023-03-04T03:42:42.360Z,101778.69
2023-03-04T03:45:09.244Z,101761.13
2023-03-04T03:47:36.099Z,101781.78
2023-03-04T03:50:03.040Z,101763.81
2023-03-04T03:52:30.416Z,101716.16
2023-03-04T03:54:57.043Z,101783.56
2023-03-04T03:57:23.806Z,101770.66
2023-03-04T03:59:50.349Z,101760.06
2023-03-04T04:02:16.938Z,101772.34
2023-03-04T04:04:43.509Z,101721.00
2023-03-04T04:07:10.137Z,101771.78
2023-03-04T04:09:36.688Z,101763.53
2023-03-04T04:12:05.921Z,101754.16
2023-03-04T04:14:32.838Z,101751.06
2023-03-04T04:16:59.495Z,101763.53
2023-03-04T04:19:26.151Z,101760.38
2023-03-04T04:21:55.659Z,101768.47
2023-03-04T04:24:22.188Z,101756.19
2023-03-04T04:26:48.672Z,101766.53
2023-03-04T04:29:16.361Z,101770.53
2023-03-04T04:31:43.061Z,101621.63
2023-03-04T04:34:09.702Z,101683.00
2023-03-04T04:36:36.411Z,101748.28
2023-03-04T04:39:03.555Z,101732.59
2023-03-04T04:41:34.964Z,101742.91
2023-03-04T04:44:01.485Z,101752.97
2023-03-04T04:46:28.078Z,101729.44
2023-03-04T04:48:54.525Z,101743.03
2023-03-04T04:51:21.053Z,101750.59
2023-03-04T04:53:48.397Z,101708.09
2023-03-04T04:56:17.875Z,101734.47
2023-03-04T04:58:45.881Z,101748.31
2023-03-04T05:01:12.916Z,101739.53
2023-03-04T05:03:39.795Z,101745.31
2023-03-04T05:06:08.342Z,101714.06
2023-03-04T05:08:35.764Z,101722.28
2023-03-04T05:11:03.392Z,101732.09
2023-03-04T05:13:30.272Z,101706.75
2023-03-04T05:15:57.999Z,101729.78
2023-03-04T05:18:26.297Z,101705.69
2023-03-04T05:21:01.373Z,101727.44
2023-03-04T05:23:30.850Z,101664.97
2023-03-04T05:25:57.379Z,101731.66
2023-03-04T05:28:24.222Z,101707.28
2023-03-04T05:30:50.901Z,101731.91
2023-03-04T05:33:18.214Z,101743.31
2023-03-04T05:35:46.098Z,101747.03
2023-03-04T05:38:15.724Z,101736.16
2023-03-04T05:40:42.254Z,101725.38
2023-03-04T05:43:09.129Z,101729.16
2023-03-04T05:45:35.793Z,101653.66
2023-03-04T05:48:03.218Z,101739.28
2023-03-04T05:50:30.965Z,101741.09
2023-03-04T05:52:58.048Z,101744.50
2023-03-04T05:55:24.939Z,101751.19
2023-03-04T05:57:51.416Z,101725.66
2023-03-04T06:00:18.220Z,101745.84
2023-03-04T06:02:45.366Z,101703.88
2023-03-04T06:05:13.962Z,101750.06
2023-03-04T06:07:43.204Z,101746.94
2023-03-04T06:10:10.887Z,101736.91
2023-03-04T06:12:37.479Z,101752.13
2023-03-04T06:15:04.341Z,101746.22
2023-03-04T06:17:30.853Z,101748.50
2023-03-04T06:19:57.429Z,101678.22
2023-03-04T06:22:24.105Z,101755.97
2023-03-04T06:24:50.621Z,101724.50
2023-03-04T06:27:17.183Z,101757.94
2023-03-04T06:29:43.640Z,101763.13
2023-03-04T06:32:10.330Z,101767.06
2023-03-04T06:34:37.372Z,101761.56
2023-03-04T06:37:04.023Z,101755.44
2023-03-04T06:39:30.557Z,101776.84
2023-03-04T06:41:56.995Z,101770.13
2023-03-04T06:44:23.468Z,101756.44
2023-03-04T06:46:49.989Z,101780.53
2023-03-04T06:49:16.547Z,101718.88
2023-03-04T06:51:43.109Z,101761.31
2023-03-04T06:54:10.653Z,101770.94
2023-03-04T06:56:37.229Z,101777.00
2023-03-04T06:59:03.737Z,101756.69
2023-03-04T07:01:30.294Z,101786.31
2023-03-04T07:03:57.832Z,101621.19
2023-03-04T07:06:26.946Z,101786.34
2023-03-04T07:08:54.066Z,101697.88
2023-03-04T07:11:22.070Z,101788.09
2023-03-04T07:13:49.341Z,101768.78
2023-03-04T07:16:19.578Z,101774.41
2023-03-04T07:18:47.264Z,101751.78
2023-03-04T07:21:15.219Z,101789.44
2023-03-04T07:23:41.752Z,101729.34
2023-03-04T07:26:08.402Z,101793.38
2023-03-04T07:28:36.032Z,101756.84
2023-03-04T07:31:30.309Z,101789.03
2023-03-04T07:33:59.751Z,101789.38
2023-03-04T07:36:26.411Z,101780.63
2023-03-04T07:38:54.863Z,101783.63
2023-03-04T07:41:22.815Z,101784.03
2023-03-04T07:43:49.634Z,101789.03
2023-03-04T07:46:16.888Z,101788.88
2023-03-04T07:48:43.463Z,101790.28
2023-03-04T07:51:15.461Z,101789.53
2023-03-04T07:53:44.869Z,101799.59
2023-03-04T07:56:14.608Z,101787.63
2023-03-04T07:58:41.073Z,101791.47
2023-03-04T08:01:16.625Z,101796.69
2023-03-04T08:03:43.209Z,101782.75
2023-03-04T08:06:12.405Z,101786.75
2023-03-04T08:08:39.943Z,101808.81
2023-03-04T08:11:12.200Z,101803.69
2023-03-04T08:13:38.761Z,101816.59
2023-03-04T08:16:06.073Z,101810.16
2023-03-04T08:18:32.869Z,101773.53
2023-03-04T08:20:59.956Z,101778.28
2023-03-04T08:23:26.456Z,101811.81
2023-03-04T08:25:53.376Z,101802.75
2023-03-04T08:28:20.120Z,101805.50
2023-03-04T08:30:53.530Z,101813.94
2023-03-04T08:33:20.101Z,101824.72
2023-03-04T08:35:46.795Z,101782.16
2023-03-04T08:38:13.321Z,101786.28
2023-03-04T08:40:40.080Z,101821.91
2023-03-04T08:43:06.600Z,101818.25
2023-03-04T08:45:33.072Z,101824.09
2023-03-04T08:47:59.581Z,101832.84
2023-03-04T08:50:27.582Z,101824.72
2023-03-04T08:52:55.964Z,101818.03
2023-03-04T08:55:22.557Z,101813.63
2023-03-04T08:57:49.039Z,101829.84
2023-03-04T09:00:16.097Z,101795.97
2023-03-04T09:02:43.694Z,101767.38
2023-03-04T09:05:10.254Z,101759.84
2023-03-04T09:07:36.778Z,101782.75
2023-03-04T09:10:04.201Z,101823.84
2023-03-04T09:12:30.796Z,101823.53
2023-03-04T09:15:10.175Z,101817.94
2023-03-04T09:17:37.929Z,101786.97
2023-03-04T09:20:05.262Z,101770.28
2023-03-04T09:22:31.948Z,101744.63
2023-03-04T09:24:58.444Z,101825.91
2023-03-04T09:27:24.999Z,101818.34
2023-03-04T09:29:51.521Z,101821.09
2023-03-04T09:32:18.163Z,101748.41
2023-03-04T09:34:44.860Z,101805.59
2023-03-04T09:37:11.711Z,101809.94
2023-03-04T09:39:38.262Z,101825.09
2023-03-04T09:42:08.641Z,101729.81
2023-03-04T09:44:41.099Z,101820.94
2023-03-04T09:47:13.541Z,101822.19
2023-03-04T09:49:44.827Z,101821.34
2023-03-04T09:52:48.567Z,101824.88
2023-03-04T09:55:22.226Z,101823.31
2023-03-04T09:58:10.770Z,101800.47
2023-03-04T10:00:47.137Z,101819.03
2023-03-04T10:03:20.080Z,101818.72
2023-03-04T10:06:00.936Z,101806.88
2023-03-04T10:08:40.189Z,101817.06
2023-03-04T10:11:17.002Z,101792.06
2023-03-04T10:14:03.838Z,101813.84
2023-03-04T10:16:41.329Z,101752.81
2023-03-04T10:19:13.787Z,101812.38
2023-03-04T10:21:46.642Z,101645.63
2023-03-04T10:24:19.493Z,101823.59
2023-03-04T10:26:49.570Z,101824.41
2023-03-04T10:29:19.213Z,101811.31
2023-03-04T10:31:46.523Z,101808.19
2023-03-04T10:34:14.894Z,101800.50
2023-03-04T10:36:55.142Z,101805.59
2023-03-04T10:39:27.457Z,101821.34
2023-03-04T10:41:58.061Z,101772.00
2023-03-04T10:44:25.244Z,101814.28
2023-03-04T10:46:54.813Z,101819.09
2023-03-04T10:49:22.258Z,101811.00
2023-03-04T10:51:52.876Z,101813.09
2023-03-04T10:54:41.940Z,101821.09
2023-03-04T10:57:38.966Z,101739.06
2023-03-04T11:00:17.518Z,101812.41
2023-03-04T11:02:45.550Z,101819.00
2023-03-04T11:05:15.345Z,101821.66
2023-03-04T11:07:55.644Z,101816.34
2023-03-04T11:10:32.199Z,101819.72
2023-03-04T11:12:58.671Z,101820.75
2023-03-04T11:15:29.479Z,101748.28
2023-03-04T11:18:12.801Z,101821.78
2023-03-04T11:20:46.775Z,101806.44
2023-03-04T11:23:36.026Z,101805.22
2023-03-04T11:26:06.562Z,101808.19
2023-03-04T11:28:49.771Z,101806.72
2023-03-04T11:31:21.494Z,101785.09
2023-03-04T11:33:56.730Z,101819.47
2023-03-04T11:36:55.089Z,101797.50
2023-03-04T11:39:43.918Z,101818.94
2023-03-04T11:42:39.215Z,101808.19
2023-03-04T11:45:27.778Z,101794.72
2023-03-04T11:48:19.215Z,101802.97
2023-03-04T11:50:51.316Z,101788.84
2023-03-04T11:53:36.974Z,101745.78
2023-03-04T11:56:24.949Z,101798.09
2023-03-04T11:58:54.497Z,101795.38
2023-03-04T12:01:33.232Z,101789.25
2023-03-04T12:04:21.871Z,101798.59
2023-03-04T12:07:06.519Z,101797.16
2023-03-04T12:09:53.440Z,101786.44
2023-03-04T12:12:43.105Z,101790.22
2023-03-04T12:15:28.422Z,101787.63
2023-03-04T12:18:31.180Z,101763.94
2023-03-04T12:21:16.035Z,101774.34
2023-03-04T12:24:07.780Z,101777.97
2023-03-04T12:26:49.496Z,101774.63
2023-03-04T12:29:39.468Z,101749.78
2023-03-04T12:32:14.166Z,101700.81
2023-03-04T12:34:58.936Z,101727.78
2023-03-04T12:37:58.548Z,101755.06
2023-03-04T12:40:28.514Z,101724.50
2023-03-04T12:43:01.113Z,101753.03
2023-03-04T12:45:51.472Z,101750.09
2023-03-04T12:48:30.581Z,101756.97
2023-03-04T12:51:09.799Z,101748.72
2023-03-04T12:53:56.706Z,101746.13
2023-03-04T12:56:33.120Z,101748.13
2023-03-04T12:59:00.880Z,101726.75
2023-03-04T13:01:39.681Z,101727.72
2023-03-04T13:04:18.567Z,101735.75
2023-03-04T13:07:22.196Z,101728.28
2023-03-04T13:09:57.404Z,101735.59
2023-03-04T13:12:24.258Z,101640.50
2023-03-04T13:15:08.990Z,101739.09
2023-03-04T13:17:51.948Z,101744.59
2023-03-04T13:20:26.400Z,101737.56
2023-03-04T13:22:55.915Z,101743.34
2023-03-04T13:25:34.674Z,101739.13
2023-03-04T13:28:10.301Z,101739.13
2023-03-04T13:30:38.263Z,101731.94
2023-03-04T13:33:11.131Z,101734.66
2023-03-04T13:35:47.148Z,101734.91
2023-03-04T13:38:32.424Z,101739.47
2023-03-04T13:41:25.267Z,101731.63
2023-03-04T13:43:53.060Z,101735.19
2023-03-04T13:46:19.665Z,101742.97
2023-03-04T13:48:52.462Z,101728.47
2023-03-04T13:51:28.821Z,101734.59
2023-03-04T13:54:16.400Z,101738.53
2023-03-04T13:56:47.785Z,101751.41
2023-03-04T13:59:22.352Z,101743.19
2023-03-04T14:02:18.747Z,101736.91
2023-03-04T14:05:05.758Z,101745.41
2023-03-04T14:07:36.557Z,101666.38
2023-03-04T14:10:08.101Z,101735.41
2023-03-04T14:12:40.991Z,101739.31
2023-03-04T14:15:13.296Z,101743.69
2023-03-04T14:17:44.562Z,101722.31
2023-03-04T14:20:29.585Z,101743.47
2023-03-04T14:22:57.301Z,101718.00
2023-03-04T14:25:29.730Z,101742.69
2023-03-04T14:28:14.522Z,101733.81
2023-03-04T14:30:44.402Z,101668.16
2023-03-04T14:33:18.739Z,101733.81
2023-03-04T14:35:52.602Z,101726.53
2023-03-04T14:38:35.040Z,101722.81
2023-03-04T14:41:12.664Z,101733.00
2023-03-04T14:43:56.270Z,101682.03
2023-03-04T14:46:27.162Z,101728.59
2023-03-04T14:48:54.615Z,101717.44
2023-03-04T14:51:41.642Z,101727.19
2023-03-04T14:54:31.141Z,101725.75
2023-03-04T14:56:59.734Z,101729.53
2023-03-04T14:59:34.298Z,101730.31
2023-03-04T15:02:31.474Z,101727.56
2023-03-04T15:05:00.659Z,101728.94
2023-03-04T15:07:33.760Z,101704.09
2023-03-04T15:10:02.570Z,101732.50
2023-03-04T15:12:31.760Z,101734.75
2023-03-04T15:15:00.596Z,101725.38
2023-03-04T15:17:40.654Z,101737.19
2023-03-04T15:20:07.087Z,101731.41
2023-03-04T15:22:58.254Z,101732.03
2023-03-04T15:25:25.134Z,101735.31
2023-03-04T15:27:51.988Z,101726.63
2023-03-04T15:30:27.465Z,101733.38
2023-03-04T15:32:58.087Z,101736.16
2023-03-04T15:35:27.561Z,101666.63
2023-03-04T15:37:55.716Z,101739.69
2023-03-04T15:40:34.416Z,101737.09
2023-03-04T15:43:03.227Z,101735.09
2023-03-04T15:45:36.117Z,101727.38
2023-03-04T15:48:07.719Z,101731.31
2023-03-04T15:50:37.869Z,101731.41
2023-03-04T15:53:08.713Z,101737.53
2023-03-04T15:55:35.582Z,101717.16
2023-03-04T15:58:03.481Z,101673.81
2023-03-04T16:00:32.135Z,101744.53
2023-03-04T16:02:58.686Z,101736.69
2023-03-04T16:05:25.233Z,101723.41
2023-03-04T16:07:52.472Z,101727.78
2023-03-04T16:10:27.550Z,101732.59
2023-03-04T16:12:54.418Z,101682.63
2023-03-04T16:15:23.624Z,101729.03
2023-03-04T16:17:50.495Z,101659.81
2023-03-04T16:20:20.849Z,101718.41
2023-03-04T16:22:51.347Z,101715.25
2023-03-04T16:25:18.936Z,101707.00
2023-03-04T16:27:45.990Z,101721.41
2023-03-04T16:30:19.453Z,101716.69
2023-03-04T16:32:46.007Z,101700.56
2023-03-04T16:35:13.853Z,101710.50
2023-03-04T16:37:41.336Z,101714.72
2023-03-04T16:40:11.653Z,101707.47
2023-03-04T16:42:38.241Z,101669.53
2023-03-04T16:45:05.077Z,101698.44
2023-03-04T16:47:31.633Z,101702.69
2023-03-04T16:49:58.923Z,101635.88
2023-03-04T16:52:33.713Z,101653.88
2023-03-04T16:55:00.557Z,101706.28
2023-03-04T16:57:28.782Z,101661.69
2023-03-04T16:59:55.427Z,101712.41
2023-03-04T17:02:26.892Z,101707.72
2023-03-04T17:04:53.508Z,101640.31
2023-03-04T17:07:20.050Z,101709.25
2023-03-04T17:09:46.524Z,101689.94
2023-03-04T17:12:13.045Z,101707.81
2023-03-04T17:14:39.918Z,101712.09
2023-03-04T17:17:07.495Z,101717.81
2023-03-04T17:19:34.041Z,101710.69
2023-03-04T17:22:02.613Z,101709.00
2023-03-04T17:24:30.083Z,101712.69
2023-03-04T17:26:56.613Z,101658.41
2023-03-04T17:29:23.141Z,101722.03
2023-03-04T17:31:49.734Z,101715.66
2023-03-04T17:34:18.085Z,101726.34
2023-03-04T17:36:44.562Z,101666.34
2023-03-04T17:39:14.140Z,101732.81
2023-03-04T17:41:40.771Z,101725.63
2023-03-04T17:44:07.329Z,101721.44
2023-03-04T17:46:34.013Z,101731.78
2023-03-04T17:49:00.737Z,101667.44
2023-03-04T17:51:35.643Z,101734.50
2023-03-04T17:54:05.549Z,101725.28
2023-03-04T17:56:33.694Z,101732.78
2023-03-04T17:59:01.615Z,101733.22
2023-03-04T18:01:28.479Z,101664.25
2023-03-04T18:03:55.114Z,101691.44
2023-03-04T18:06:24.207Z,101715.88
2023-03-04T18:08:52.442Z,101715.69
2023-03-04T18:11:24.175Z,101719.31
2023-03-04T18:13:51.622Z,101715.56
2023-03-04T18:16:23.579Z,101691.66
2023-03-04T18:18:51.325Z,101720.75
2023-03-04T18:21:19.017Z,101735.00
2023-03-04T18:23:45.898Z,101697.28
2023-03-04T18:26:13.152Z,101729.47
2023-03-04T18:28:39.771Z,101698.84
2023-03-04T18:31:06.422Z,101708.97
2023-03-04T18:33:34.515Z,101711.63
2023-03-04T18:36:06.010Z,101678.19
2023-03-04T18:38:32.870Z,101722.44
2023-03-04T18:41:00.997Z,101723.91
2023-03-04T18:43:28.054Z,101726.53
2023-03-04T18:46:05.611Z,101719.78
2023-03-04T18:48:36.628Z,101730.72
2023-03-04T18:51:03.243Z,101709.78
2023-03-04T18:53:30.955Z,101733.91
2023-03-04T18:56:03.147Z,101702.06
2023-03-04T18:58:33.894Z,101723.91
2023-03-04T19:01:05.021Z,101730.72
2023-03-04T19:03:34.322Z,101696.53
2023-03-04T19:06:01.511Z,101725.91
2023-03-04T19:08:28.074Z,101715.69
2023-03-04T19:10:55.957Z,101733.19
2023-03-04T19:13:22.852Z,101667.88
2023-03-04T19:15:53.870Z,101673.06
2023-03-04T19:18:20.840Z,101683.34
2023-03-04T19:20:47.359Z,101719.03
2023-03-04T19:23:14.316Z,101740.31
2023-03-04T19:25:47.168Z,101588.41
2023-03-04T19:28:13.851Z,101676.59
2023-03-04T19:30:41.682Z,101735.69
2023-03-04T19:33:08.367Z,101725.78
2023-03-04T19:35:39.523Z,101734.53
2023-03-04T19:38:06.107Z,101732.09
2023-03-04T19:40:34.243Z,101716.97
2023-03-04T19:43:00.735Z,101687.88
2023-03-04T19:45:27.268Z,101740.63
2023-03-04T19:47:53.826Z,101737.19
2023-03-04T19:50:20.457Z,101737.84
2023-03-04T19:52:47.078Z,101742.19
2023-03-04T19:55:13.826Z,101751.38
2023-03-04T19:57:44.335Z,101682.72
2023-03-04T20:00:12.491Z,101756.81
2023-03-04T20:02:39.191Z,101728.53
2023-03-04T20:05:06.655Z,101755.06
2023-03-04T20:07:33.116Z,101759.81
2023-03-04T20:09:59.531Z,101758.13
2023-03-04T20:12:26.124Z,101763.59
2023-03-04T20:14:52.710Z,101759.75
2023-03-04T20:17:19.261Z,101687.88
2023-03-04T20:19:46.241Z,101673.50
2023-03-04T20:22:13.504Z,101749.59
2023-03-04T20:24:40.151Z,101722.28
2023-03-04T20:27:06.681Z,101687.69
2023-03-04T20:29:33.165Z,101719.94
2023-03-04T20:31:59.830Z,101644.94
2023-03-04T20:34:27.184Z,101745.00
2023-03-04T20:36:53.800Z,101705.78
2023-03-04T20:39:29.299Z,101711.88
2023-03-04T20:41:57.924Z,101733.66
2023-03-04T20:44:24.808Z,101747.34
2023-03-04T20:46:52.290Z,101736.25
2023-03-04T20:49:24.285Z,101726.13
2023-03-04T20:51:52.425Z,101734.19
2023-03-04T20:54:19.683Z,101715.84
2023-03-04T20:56:46.449Z,101664.19
2023-03-04T20:59:13.069Z,101727.09
2023-03-04T21:01:43.137Z,101731.53
2023-03-04T21:04:10.116Z,101651.19
2023-03-04T21:06:38.780Z,101689.56
2023-03-04T21:09:08.155Z,101727.25
2023-03-04T21:11:40.239Z,101712.50
2023-03-04T21:14:12.164Z,101725.03
2023-03-04T21:16:38.665Z,101654.09
2023-03-04T21:19:05.337Z,101688.66
2023-03-04T21:21:31.986Z,101710.81
2023-03-04T21:23:59.281Z,101705.16
2023-03-04T21:26:26.048Z,101667.03
2023-03-04T21:28:53.971Z,101650.31
2023-03-04T21:31:23.927Z,101677.97
2023-03-04T21:33:51.253Z,101708.91
2023-03-04T21:36:17.793Z,101706.16
2023-03-04T21:38:45.001Z,101702.50
2023-03-04T21:41:16.738Z,101703.44
2023-03-04T21:43:43.367Z,101676.75
2023-03-04T21:46:13.172Z,101701.97
2023-03-04T21:48:40.004Z,101679.25
2023-03-04T21:51:08.369Z,101692.66
2023-03-04T21:53:36.194Z,101686.91
2023-03-04T21:56:04.108Z,101693.50
2023-03-04T21:58:31.082Z,101671.41
2023-03-04T22:00:59.218Z,101624.88
2023-03-04T22:03:27.171Z,101696.84
2023-03-04T22:05:53.625Z,101698.38
2023-03-04T22:08:20.832Z,101668.69
2023-03-04T22:10:50.393Z,101689.09
2023-03-04T22:13:16.995Z,101653.34
2023-03-04T22:15:44.808Z,101699.63
2023-03-04T22:18:13.611Z,101694.56
2023-03-04T22:20:42.490Z,101678.66
2023-03-04T22:23:10.150Z,101437.94
2023-03-04T22:25:38.285Z,101670.91
2023-03-04T22:28:05.705Z,101699.19
2023-03-04T22:30:33.180Z,101679.84
2023-03-04T22:32:59.663Z,101575.19
2023-03-04T22:35:26.340Z,101650.16
2023-03-04T22:37:53.089Z,101675.44
2023-03-04T22:40:20.224Z,101688.78
2023-03-04T22:42:47.627Z,101678.81
2023-03-04T22:45:16.471Z,101672.22
2023-03-04T22:47:51.271Z,101679.44
2023-03-04T22:50:19.924Z,101666.38
2023-03-04T22:52:49.861Z,101652.91
2023-03-04T22:55:18.420Z,101657.88
2023-03-04T22:57:45.547Z,101667.94
2023-03-04T23:00:15.633Z,101632.19
2023-03-04T23:02:42.340Z,101653.63
2023-03-04T23:05:09.346Z,101653.69
2023-03-04T23:07:36.472Z,101623.91
2023-03-04T23:10:04.391Z,101653.09
2023-03-04T23:12:35.360Z,101598.63
2023-03-04T23:15:01.903Z,101532.06
2023-03-04T23:17:28.382Z,101646.28
2023-03-04T23:19:54.924Z,101648.34
2023-03-04T23:22:21.440Z,101629.69
2023-03-04T23:24:47.939Z,101616.81
2023-03-04T23:27:14.636Z,101625.81
2023-03-04T23:29:41.086Z,101609.25
2023-03-04T23:32:08.379Z,101617.72
2023-03-04T23:34:36.687Z,101542.53
2023-03-04T23:37:03.868Z,101619.56
2023-03-04T23:39:30.404Z,101610.91
2023-03-04T23:41:56.920Z,101603.03
2023-03-04T23:44:23.423Z,101608.31
2023-03-04T23:46:51.097Z,101588.69
2023-03-04T23:49:18.084Z,101597.94
2023-03-04T23:51:45.358Z,101590.91
2023-03-04T23:54:13.835Z,101610.97
2023-03-04T23:56:40.904Z,101602.97
2023-03-04T23:59:07.935Z,101600.44
